Time;durP1;ratioP1;P1;durP2;ratioP2;P2;SDS_P1;SDS_P2;PMS_P1;PMS_P2;Temp;Humidity;BMP_temperature;BMP_pressure;BME280_temperature;BME280_humidity;BME280_pressure;Samples;Min_cycle;Max_cycle;Signal;HPM_P1;HPM_P2
2023/03/10 00:02:23;;;;;;;0.95;0.75;;;;;;;22.68;36.58;96766.22;7396040;19;20039;-63
2023/03/10 00:04:50;;;;;;;0.75;0.75;;;;;;;22.65;36.79;96778.84;7392874;19;20066;-63
2023/03/10 00:07:17;;;;;;;0.13;0.13;;;;;;;22.49;36.73;96793.66;7392502;19;20389;-63
2023/03/10 00:09:44;;;;;;;0.28;0.28;;;;;;;22.33;36.83;96809.06;7391734;19;20011;-62
2023/03/10 00:12:10;;;;;;;0.25;0.25;;;;;;;15.25;55.33;96822.03;7400379;19;20014;-63
2023/03/10 00:14:37;;;;;;;0.38;0.38;;;;;;;21.90;40.46;96811.78;7399499;19;20127;-62
2023/03/10 00:17:03;;;;;;;0.30;0.30;;;;;;;22.44;38.56;96805.41;7399184;19;20006;-62
2023/03/10 00:19:30;;;;;;;0.70;0.70;;;;;;;22.84;37.34;96801.09;7397137;19;20014;-62
2023/03/10 00:21:56;;;;;;;0.20;0.20;;;;;;;21.91;38.06;96796.25;7397757;19;20344;-62
2023/03/10 00:24:22;;;;;;;0.30;0.30;;;;;;;21.68;38.01;96796.38;7398201;19;20011;-62
2023/03/10 00:26:49;;;;;;;1.95;0.70;;;;;;;21.93;37.91;96776.53;7397883;19;20356;-62
2023/03/10 00:29:16;;;;;;;0.32;0.32;;;;;;;21.80;37.85;96774.38;7402158;19;20032;-62
2023/03/10 00:31:43;;;;;;;0.43;0.40;;;;;;;21.76;37.85;96791.91;7399813;19;20018;-62
2023/03/10 00:34:10;;;;;;;0.32;0.32;;;;;;;21.37;38.93;96802.50;7398885;19;20023;-62
2023/03/10 00:36:38;;;;;;;0.32;0.32;;;;;;;21.39;38.38;96804.69;7401745;19;20018;-62
2023/03/10 00:39:05;;;;;;;0.30;0.30;;;;;;;20.90;39.04;96784.94;7397489;19;20018;-62
2023/03/10 00:41:35;;;;;;;0.20;0.20;;;;;;;20.50;39.38;96802.41;7398569;19;20031;-62
2023/03/10 00:44:02;;;;;;;0.30;0.30;;;;;;;18.47;40.56;96800.81;7398115;19;20503;-62
2023/03/10 00:46:28;;;;;;;0.30;0.30;;;;;;;9.55;77.16;96823.50;7397441;19;20098;-62
2023/03/10 00:48:55;;;;;;;0.25;0.25;;;;;;;13.99;80.08;96799.88;7396714;19;20045;-61
2023/03/10 00:51:22;;;;;;;0.38;0.38;;;;;;;19.66;48.98;96807.16;7398846;19;20151;-62
2023/03/10 00:53:49;;;;;;;0.30;0.30;;;;;;;20.11;45.32;96792.97;7400891;19;20039;-62
2023/03/10 00:56:19;;;;;;;0.22;0.22;;;;;;;20.54;44.26;96813.94;7395337;19;20010;-62
2023/03/10 00:58:46;;;;;;;0.90;0.50;;;;;;;20.68;42.95;96816.88;7399561;19;20066;-62
2023/03/10 01:01:17;;;;;;;0.40;0.40;;;;;;;21.11;42.36;96827.19;7396839;19;20021;-62
2023/03/10 01:03:44;;;;;;;0.55;0.55;;;;;;;21.11;41.38;96821.53;7397188;19;20018;-61
2023/03/10 01:06:11;;;;;;;0.20;0.20;;;;;;;19.60;44.25;96812.44;7396915;19;20015;-61
2023/03/10 01:08:37;;;;;;;0.22;0.22;;;;;;;14.17;53.76;96831.44;7394721;19;20031;-61
2023/03/10 01:11:04;;;;;;;0.17;0.17;;;;;;;12.91;60.23;96830.34;7396971;19;20021;-61
2023/03/10 01:13:31;;;;;;;0.20;0.20;;;;;;;19.54;45.64;96806.41;7398851;19;20007;-60
2023/03/10 01:15:57;;;;;;;0.47;0.47;;;;;;;22.54;41.19;96826.50;7400035;19;20018;-61
2023/03/10 01:18:23;;;;;;;0.40;0.40;;;;;;;23.09;39.27;96852.00;7395991;19;20010;-62
2023/03/10 01:20:50;;;;;;;0.30;0.30;;;;;;;23.21;38.43;96835.59;7397589;19;20017;-62
2023/03/10 01:23:21;;;;;;;0.60;0.60;;;;;;;23.00;37.94;96864.34;7393698;19;20007;-61
2023/03/10 01:25:49;;;;;;;0.77;0.77;;;;;;;22.71;38.52;96855.75;7394591;19;20078;-62
2023/03/10 01:28:17;;;;;;;15.20;1.00;;;;;;;23.00;37.89;96864.34;7395465;19;20010;-61
2023/03/10 01:30:44;;;;;;;1.45;0.52;;;;;;;23.17;37.01;96873.00;7395311;19;20027;-61
2023/03/10 01:33:11;;;;;;;0.22;0.22;;;;;;;22.82;37.04;96860.56;7396842;19;20018;-61
2023/03/10 01:35:38;;;;;;;0.28;0.28;;;;;;;22.19;37.54;96857.28;7394932;19;20003;-61
2023/03/10 01:38:05;;;;;;;0.20;0.20;;;;;;;22.02;37.87;96863.47;7394484;19;20017;-61
2023/03/10 01:40:31;;;;;;;0.40;0.40;;;;;;;21.78;38.05;96873.44;7394665;19;20022;-62
2023/03/10 01:43:15;;;;;;;1.15;0.63;;;;;;;19.77;40.55;96884.81;7394693;19;20021;-62
2023/03/10 01:45:44;;;;;;;0.50;0.50;;;;;;;20.19;40.23;96884.59;7394954;19;20021;-62
2023/03/10 01:48:12;;;;;;;1.60;1.02;;;;;;;20.59;39.67;96874.31;7393879;19;20456;-61
2023/03/10 01:50:40;;;;;;;0.77;0.77;;;;;;;21.68;38.53;96881.34;7395896;19;20007;-62
2023/03/10 01:53:07;;;;;;;0.47;0.47;;;;;;;21.83;38.42;96877.97;7396402;19;20015;-62
2023/03/10 01:55:37;;;;;;;1.20;0.40;;;;;;;21.69;38.02;96885.66;7396425;19;20021;-61
2023/03/10 01:58:06;;;;;;;0.20;0.20;;;;;;;22.01;37.96;96886.72;7392605;19;20463;-62
2023/03/10 02:00:33;;;;;;;0.32;0.32;;;;;;;22.13;37.46;96876.06;7396364;19;20459;-62
2023/03/10 02:03:11;;;;;;;0.30;0.30;;;;;;;22.23;37.51;96877.34;7396360;19;20010;-61
2023/03/10 02:05:43;;;;;;;0.45;0.45;;;;;;;22.41;36.58;96883.25;7399344;19;20007;-61
2023/03/10 02:08:11;;;;;;;0.20;0.20;;;;;;;22.32;37.26;96890.59;7394658;19;20029;-61
2023/03/10 02:10:38;;;;;;;0.45;0.30;;;;;;;22.49;36.70;96878.75;7393012;19;20007;-62
2023/03/10 02:13:04;;;;;;;1.38;0.80;;;;;;;22.55;36.75;96884.72;7392202;19;20018;-61
2023/03/10 02:15:33;;;;;;;0.28;0.28;;;;;;;22.68;36.57;96880.44;7398259;19;20357;-62
2023/03/10 02:18:01;;;;;;;0.68;0.30;;;;;;;22.54;36.71;96903.09;7399174;19;20018;-62
2023/03/10 02:20:40;;;;;;;0.30;0.30;;;;;;;22.49;36.68;96909.19;7393247;19;20017;-62
2023/03/10 02:23:09;;;;;;;0.40;0.40;;;;;;;22.42;36.58;96902.47;7393885;19;20010;-62
2023/03/10 02:25:57;;;;;;;0.20;0.20;;;;;;;22.63;36.44;96903.56;7397130;19;20018;-62
2023/03/10 02:28:24;;;;;;;0.63;0.63;;;;;;;22.19;36.65;96888.47;7393344;19;20010;-62
2023/03/10 02:30:52;;;;;;;0.43;0.43;;;;;;;22.08;36.65;96894.22;7394098;19;20844;-62
2023/03/10 02:33:24;;;;;;;0.15;0.15;;;;;;;21.93;36.87;96898.38;7394850;19;20031;-62
2023/03/10 02:35:51;;;;;;;0.28;0.25;;;;;;;22.21;36.40;96897.09;7392183;19;20007;-61
2023/03/10 02:38:21;;;;;;;1.80;0.63;;;;;;;22.21;36.35;96910.53;7395570;19;20498;-62
2023/03/10 02:40:50;;;;;;;0.20;0.20;;;;;;;21.87;36.48;96918.59;7394547;19;20256;-60
2023/03/10 02:43:28;;;;;;;0.30;0.30;;;;;;;21.94;36.88;96935.97;7392488;19;20003;-60
2023/03/10 02:46:06;;;;;;;1.00;0.43;;;;;;;21.95;36.70;96921.16;7390500;19;20027;-60
2023/03/10 02:48:37;;;;;;;0.30;0.30;;;;;;;18.44;38.55;96931.59;7391916;19;20011;-61
2023/03/10 02:51:16;;;;;;;1.23;0.63;;;;;;;20.72;38.53;96919.66;7393404;19;20011;-60
2023/03/10 02:53:42;;;;;;;0.30;0.30;;;;;;;20.99;37.72;96936.84;7392248;19;20011;-60
2023/03/10 02:56:10;;;;;;;0.10;0.10;;;;;;;20.76;37.97;96922.00;7391034;19;20070;-60
2023/03/10 02:58:38;;;;;;;0.52;0.52;;;;;;;21.31;37.26;96923.16;7393927;19;20605;-60
2023/03/10 03:01:07;;;;;;;0.63;0.63;;;;;;;21.05;37.86;96939.34;7394950;19;20010;-60
2023/03/10 03:03:38;;;;;;;0.28;0.28;;;;;;;20.67;38.50;96920.78;7391126;19;20014;-60
2023/03/10 03:06:05;;;;;;;0.20;0.20;;;;;;;20.33;38.22;96939.22;7391121;19;20018;-61
2023/03/10 03:08:32;;;;;;;0.38;0.38;;;;;;;20.06;38.73;96932.50;7391526;19;20006;-61
2023/03/10 03:11:00;;;;;;;0.30;0.30;;;;;;;20.04;38.89;96940.84;7393873;19;20011;-62
2023/03/10 03:13:26;;;;;;;1.20;0.77;;;;;;;20.29;38.88;96932.56;7391688;19;20034;-61
2023/03/10 03:15:53;;;;;;;5.10;0.75;;;;;;;20.46;38.69;96971.78;7391027;19;20022;-62
2023/03/10 03:18:20;;;;;;;0.13;0.13;;;;;;;20.37;38.76;96952.84;7390815;19;20018;-62
2023/03/10 03:20:46;;;;;;;1.42;1.02;;;;;;;21.13;38.00;96946.22;7392280;19;20352;-61
2023/03/10 03:23:13;;;;;;;0.30;0.30;;;;;;;20.97;37.75;96969.94;7391810;19;20018;-60
2023/03/10 03:25:40;;;;;;;0.98;0.68;;;;;;;16.07;43.92;96968.88;7390921;19;20030;-63
2023/03/10 03:28:10;;;;;;;0.85;0.50;;;;;;;18.29;43.99;96977.03;7393149;19;20014;-61
2023/03/10 03:30:38;;;;;;;0.22;0.22;;;;;;;20.20;39.69;96970.13;7394964;19;20022;-61
2023/03/10 03:33:06;;;;;;;0.30;0.30;;;;;;;20.31;39.70;96989.22;7391623;19;20374;-60
2023/03/10 03:35:35;;;;;;;0.75;0.38;;;;;;;17.06;42.39;96988.53;7392029;19;20028;-61
2023/03/10 03:38:03;;;;;;;0.30;0.30;;;;;;;15.70;48.00;97020.66;7390787;19;20320;-62
2023/03/10 03:40:33;;;;;;;0.82;0.82;;;;;;;20.21;40.62;96999.88;7390861;19;20014;-62
2023/03/10 03:43:00;;;;;;;0.60;0.60;;;;;;;20.80;39.33;97024.81;7394743;19;20022;-62
2023/03/10 03:45:28;;;;;;;0.45;0.45;;;;;;;20.93;39.04;97032.69;7392718;19;20017;-62
2023/03/10 03:47:56;;;;;;;0.50;0.30;;;;;;;20.30;39.69;97047.09;7400525;19;20062;-62
2023/03/10 03:50:25;;;;;;;0.30;0.30;;;;;;;20.25;40.15;97042.53;7400869;19;20010;-62
2023/03/10 03:52:53;;;;;;;0.30;0.30;;;;;;;19.99;40.45;97040.84;7399584;19;20014;-63
2023/03/10 03:55:22;;;;;;;0.50;0.50;;;;;;;19.92;40.11;97053.09;7400001;19;20011;-62
2023/03/10 03:57:50;;;;;;;0.20;0.20;;;;;;;20.23;39.97;97048.78;7399976;19;20460;-62
2023/03/10 04:00:20;;;;;;;0.25;0.25;;;;;;;20.60;39.59;97056.75;7398297;19;20010;-60
2023/03/10 04:02:49;;;;;;;0.30;0.30;;;;;;;20.69;39.47;97067.97;7398843;19;20015;-63
2023/03/10 04:05:17;;;;;;;0.10;0.10;;;;;;;20.78;39.15;97063.53;7398128;19;20433;-62
2023/03/10 04:07:45;;;;;;;0.30;0.30;;;;;;;20.67;39.37;97084.81;7399426;19;20006;-63
2023/03/10 04:10:14;;;;;;;0.20;0.20;;;;;;;19.29;40.60;97107.41;7398103;19;20007;-62
2023/03/10 04:12:41;;;;;;;0.60;0.60;;;;;;;19.26;41.06;97091.69;7397858;19;20021;-62
2023/03/10 04:15:08;;;;;;;0.20;0.20;;;;;;;19.64;40.61;97114.81;7401631;19;20026;-62
2023/03/10 04:17:35;;;;;;;0.40;0.40;;;;;;;13.98;49.52;97166.97;7398165;19;20010;-62
2023/03/10 04:20:02;;;;;;;0.15;0.15;;;;;;;16.98;46.43;97144.63;7399096;19;21143;-62
2023/03/10 04:22:29;;;;;;;0.30;0.30;;;;;;;19.35;42.41;97117.06;7402182;19;20011;-63
2023/03/10 04:24:55;;;;;;;0.65;0.40;;;;;;;20.75;39.82;97146.78;7401411;19;20010;-62
2023/03/10 04:27:21;;;;;;;0.28;0.28;;;;;;;21.01;39.64;97163.34;7397670;19;20376;-62
2023/03/10 04:29:48;;;;;;;0.32;0.32;;;;;;;21.24;39.13;97174.00;7402049;19;20010;-63
2023/03/10 04:32:14;;;;;;;0.32;0.32;;;;;;;21.19;38.09;97180.00;7396984;19;20022;-64
2023/03/10 04:34:41;;;;;;;0.40;0.40;;;;;;;21.22;38.26;97199.34;7398609;19;20074;-65
2023/03/10 04:37:09;;;;;;;0.50;0.40;;;;;;;21.00;38.56;97226.97;7399630;19;20469;-62
2023/03/10 04:39:36;;;;;;;0.10;0.10;;;;;;;20.84;38.80;97211.75;7396965;19;20035;-63
2023/03/10 04:42:03;;;;;;;0.20;0.20;;;;;;;19.01;41.40;97230.31;7393993;19;20023;-63
2023/03/10 04:44:30;;;;;;;0.28;0.28;;;;;;;20.06;39.67;97249.69;7400696;19;20015;-64
2023/03/10 04:46:58;;;;;;;0.32;0.32;;;;;;;20.25;39.12;97277.84;7396769;19;20003;-63
2023/03/10 04:49:24;;;;;;;0.28;0.28;;;;;;;19.50;40.25;97268.38;7398137;19;20029;-63
2023/03/10 04:51:50;;;;;;;0.30;0.30;;;;;;;19.77;39.99;97308.44;7399207;19;20014;-62
2023/03/10 04:54:17;;;;;;;0.68;0.68;;;;;;;19.70;39.61;97317.06;7395879;19;20010;-63
2023/03/10 04:56:43;;;;;;;0.40;0.40;;;;;;;20.22;39.46;97313.00;7397590;19;20011;-62
2023/03/10 04:59:10;;;;;;;1.20;0.63;;;;;;;20.87;38.55;97312.41;7398010;19;20353;-60
2023/03/10 05:01:36;;;;;;;1.67;1.15;;;;;;;21.21;38.68;97352.81;7396073;19;20011;-60
2023/03/10 05:04:05;;;;;;;0.28;0.28;;;;;;;19.92;40.08;97363.81;7397727;19;20006;-60
2023/03/10 05:06:32;;;;;;;0.40;0.40;;;;;;;20.71;39.02;97341.69;7394508;19;20038;-61
2023/03/10 05:09:08;;;;;;;1.00;0.45;;;;;;;21.08;38.42;97357.69;7395051;19;20515;-60
2023/03/10 05:11:34;;;;;;;0.20;0.20;;;;;;;21.11;38.36;97359.28;7399254;19;20018;-60
2023/03/10 05:14:01;;;;;;;0.93;0.93;;;;;;;21.00;38.30;97356.38;7396361;19;20019;-60
2023/03/10 05:16:27;;;;;;;0.30;0.30;;;;;;;20.91;38.17;97338.13;7397861;19;20011;-60
2023/03/10 05:18:54;;;;;;;0.30;0.30;;;;;;;20.58;38.48;97393.13;7398818;19;20464;-60
2023/03/10 05:21:24;;;;;;;0.30;0.30;;;;;;;20.38;38.66;97375.53;7396487;19;20011;-61
2023/03/10 05:23:52;;;;;;;0.40;0.40;;;;;;;20.02;38.59;97404.06;7394538;19;20011;-60
2023/03/10 05:26:20;;;;;;;0.45;0.45;;;;;;;19.88;39.19;97420.03;7393028;19;20519;-61
2023/03/10 05:28:46;;;;;;;0.22;0.22;;;;;;;17.35;42.45;97433.78;7398038;19;20015;-60
2023/03/10 05:31:16;;;;;;;0.40;0.40;;;;;;;20.37;38.56;97464.53;7397909;19;20463;-60
2023/03/10 05:33:45;;;;;;;0.30;0.30;;;;;;;20.49;38.54;97490.81;7395075;19;20015;-61
2023/03/10 05:36:13;;;;;;;0.20;0.20;;;;;;;20.50;38.55;97491.56;7394424;19;20053;-60
2023/03/10 05:38:41;;;;;;;0.90;0.85;;;;;;;20.58;37.89;97507.00;7396078;19;20011;-61
2023/03/10 05:41:11;;;;;;;0.50;0.50;;;;;;;20.46;38.16;97528.03;7393194;19;20018;-61
2023/03/10 05:43:39;;;;;;;0.30;0.30;;;;;;;20.53;37.92;97556.13;7397564;19;20357;-61
2023/03/10 05:46:07;;;;;;;0.30;0.30;;;;;;;19.34;39.43;97583.34;7394753;19;20039;-60
2023/03/10 05:48:41;;;;;;;0.25;0.25;;;;;;;20.26;38.15;97589.53;7393920;19;20018;-60
2023/03/10 05:51:10;;;;;;;0.57;0.57;;;;;;;20.53;37.98;97598.56;7397201;19;20078;-60
2023/03/10 05:53:38;;;;;;;0.50;0.50;;;;;;;20.76;37.17;97612.19;7393510;19;20022;-60
2023/03/10 05:56:13;;;;;;;0.20;0.20;;;;;;;20.81;37.57;97625.31;7394439;19;20321;-60
2023/03/10 05:58:40;;;;;;;0.30;0.30;;;;;;;20.77;37.39;97639.16;7397324;19;20028;-61
2023/03/10 06:01:08;;;;;;;0.47;0.47;;;;;;;20.22;37.81;97649.34;7392876;19;20010;-61
2023/03/10 06:03:35;;;;;;;0.65;0.65;;;;;;;20.16;38.30;97665.09;7397527;19;20358;-60
2023/03/10 06:06:02;;;;;;;0.82;0.20;;;;;;;20.04;38.40;97669.81;7399436;19;20027;-61
2023/03/10 06:08:29;;;;;;;0.95;0.40;;;;;;;19.98;38.46;97694.81;7393208;19;20014;-60
2023/03/10 06:10:57;;;;;;;0.30;0.30;;;;;;;20.24;38.01;97688.31;7396732;19;20006;-60
2023/03/10 06:13:24;;;;;;;0.40;0.40;;;;;;;20.08;37.95;97690.66;7398670;19;20070;-60
2023/03/10 06:15:52;;;;;;;0.40;0.40;;;;;;;20.06;37.93;97707.47;7394252;19;20014;-60
2023/03/10 06:18:19;;;;;;;0.60;0.60;;;;;;;19.96;38.69;97706.72;7393729;19;21154;-60
2023/03/10 06:20:46;;;;;;;0.38;0.38;;;;;;;19.98;38.36;97725.88;7395975;19;20070;-60
2023/03/10 06:23:16;;;;;;;0.50;0.50;;;;;;;20.04;38.66;97737.66;7395918;19;20042;-60
2023/03/10 06:25:43;;;;;;;0.40;0.40;;;;;;;19.81;38.67;97748.59;7395644;19;20015;-60
2023/03/10 06:28:10;;;;;;;0.70;0.70;;;;;;;19.98;38.59;97760.53;7396666;19;20017;-60
2023/03/10 06:30:36;;;;;;;0.60;0.60;;;;;;;20.02;38.62;97785.53;7395309;19;20006;-60
2023/03/10 06:33:02;;;;;;;0.50;0.50;;;;;;;19.96;38.55;97788.66;7398082;19;20087;-60
2023/03/10 06:35:30;;;;;;;0.75;0.63;;;;;;;19.95;38.88;97787.16;7394899;19;20010;-61
2023/03/10 06:37:56;;;;;;;7.18;1.63;;;;;;;19.92;38.69;97776.28;7394401;19;20018;-61
2023/03/10 06:40:23;;;;;;;0.73;0.70;;;;;;;20.14;38.59;97769.50;7393808;19;20017;-61
2023/03/10 06:42:49;;;;;;;1.80;1.67;;;;;;;20.14;38.26;97753.28;7393431;19;20070;-60
2023/03/10 06:45:16;;;;;;;0.47;0.47;;;;;;;19.91;38.58;97769.13;7395147;19;20007;-61
2023/03/10 06:47:43;;;;;;;0.75;0.68;;;;;;;19.89;38.63;97794.41;7393908;19;20015;-61
2023/03/10 06:50:11;;;;;;;0.40;0.40;;;;;;;19.72;38.72;97791.66;7393310;19;20087;-60
2023/03/10 06:52:38;;;;;;;0.47;0.47;;;;;;;19.76;38.94;97811.75;7395815;19;20010;-60
2023/03/10 06:55:04;;;;;;;5.15;1.08;;;;;;;19.76;38.75;97814.56;7396204;19;20041;-60
2023/03/10 06:57:30;;;;;;;0.95;0.70;;;;;;;19.49;38.85;97818.16;7394180;19;20034;-60
2023/03/10 06:59:56;;;;;;;0.30;0.30;;;;;;;19.15;39.72;97825.94;7392996;19;20007;-60
2023/03/10 07:02:23;;;;;;;0.30;0.30;;;;;;;19.01;40.05;97833.28;7396071;19;20039;-61
2023/03/10 07:04:49;;;;;;;0.90;0.82;;;;;;;18.97;39.86;97856.28;7397426;19;20010;-60
2023/03/10 07:07:15;;;;;;;0.43;0.32;;;;;;;18.96;39.66;97860.41;7392771;19;20006;-60
2023/03/10 07:09:41;;;;;;;0.13;0.13;;;;;;;18.98;39.95;97852.09;7393097;19;20013;-60
2023/03/10 07:12:08;;;;;;;0.30;0.30;;;;;;;18.89;40.02;97880.97;7394992;19;20010;-60
2023/03/10 07:14:34;;;;;;;0.20;0.20;;;;;;;18.94;39.76;97880.00;7392764;19;20015;-60
2023/03/10 07:17:01;;;;;;;0.20;0.20;;;;;;;19.05;40.03;97878.75;7391954;19;20018;-60
2023/03/10 07:19:27;;;;;;;0.40;0.40;;;;;;;19.08;39.51;97874.75;7391785;19;20349;-60
2023/03/10 07:21:54;;;;;;;0.30;0.30;;;;;;;18.91;40.04;97875.50;7394537;19;20007;-60
2023/03/10 07:24:20;;;;;;;0.30;0.30;;;;;;;18.90;40.12;97893.75;7398502;19;20018;-61
2023/03/10 07:26:47;;;;;;;0.70;0.70;;;;;;;18.77;40.12;97902.53;7398097;19;20039;-60
2023/03/10 07:29:13;;;;;;;1.75;0.95;;;;;;;19.25;40.10;97900.16;7401809;19;20022;-60
2023/03/10 07:31:39;;;;;;;0.20;0.20;;;;;;;19.50;39.31;97910.00;7397412;19;20359;-60
2023/03/10 07:34:05;;;;;;;0.20;0.20;;;;;;;19.65;39.61;97923.94;7396689;19;20011;-61
2023/03/10 07:36:31;;;;;;;0.38;0.38;;;;;;;19.63;39.62;97926.59;7400585;19;20365;-60
2023/03/10 07:38:57;;;;;;;0.40;0.40;;;;;;;19.59;39.41;97946.06;7402939;19;20468;-60
2023/03/10 07:41:24;;;;;;;0.30;0.30;;;;;;;19.70;39.33;97946.84;7398370;19;20368;-60
2023/03/10 07:43:53;;;;;;;0.30;0.30;;;;;;;19.70;39.43;97963.81;7399701;19;20010;-60
2023/03/10 07:46:19;;;;;;;0.13;0.13;;;;;;;19.76;39.43;97990.47;7402247;19;20139;-60
2023/03/10 07:48:46;;;;;;;0.10;0.10;;;;;;;19.87;39.39;97995.59;7386611;19;20906;-61
2023/03/10 07:51:12;;;;;;;0.20;0.20;;;;;;;19.82;39.16;98007.13;7398166;19;20018;-60
2023/03/10 07:53:38;;;;;;;0.20;0.20;;;;;;;19.63;39.38;98016.97;7398068;19;20007;-60
2023/03/10 07:56:10;;;;;;;0.60;0.60;;;;;;;19.72;39.52;98028.94;7398755;19;20011;-60
2023/03/10 07:58:37;;;;;;;0.32;0.32;;;;;;;19.67;39.28;98062.50;7398414;19;20044;-60
2023/03/10 08:01:05;;;;;;;0.32;0.30;;;;;;;19.76;39.53;98068.78;7399336;19;20015;-59
2023/03/10 08:03:32;;;;;;;0.30;0.30;;;;;;;19.77;40.05;98098.56;7399436;19;20015;-60
2023/03/10 08:05:59;;;;;;;0.30;0.30;;;;;;;19.03;40.89;98116.34;7398253;19;20074;-60
2023/03/10 08:08:27;;;;;;;15.70;0.65;;;;;;;19.05;40.54;98133.44;7398097;19;20482;-60
2023/03/10 08:11:08;;;;;;;0.15;0.15;;;;;;;17.08;44.00;98140.97;7399376;19;20014;-59
2023/03/10 08:13:35;;;;;;;0.30;0.30;;;;;;;18.99;41.07;98151.91;7399643;19;20375;-59
2023/03/10 08:16:02;;;;;;;0.32;0.32;;;;;;;18.44;41.99;98160.44;7399781;19;20006;-59
2023/03/10 08:18:29;;;;;;;0.45;0.45;;;;;;;19.02;41.03;98162.03;7398098;19;20010;-63
2023/03/10 08:20:56;;;;;;;0.22;0.22;;;;;;;18.51;41.87;98170.97;7397778;19;20015;-60
2023/03/10 08:23:24;;;;;;;0.20;0.20;;;;;;;16.92;44.91;98170.38;7397311;19;20376;-60
2023/03/10 08:25:51;;;;;;;0.28;0.28;;;;;;;18.65;41.99;98169.41;7398158;19;20011;-59
2023/03/10 08:28:17;;;;;;;1.75;0.68;;;;;;;18.84;41.46;98192.25;7400314;19;20019;-59
2023/03/10 08:30:43;;;;;;;0.50;0.50;;;;;;;17.95;43.29;98187.09;7398313;19;20018;-59
2023/03/10 08:33:10;;;;;;;0.77;0.70;;;;;;;19.05;41.93;98198.31;7396387;19;20471;-60
2023/03/10 08:35:37;;;;;;;1.40;0.45;;;;;;;19.17;41.80;98199.38;7396897;19;20133;-59
2023/03/10 08:38:03;;;;;;;0.50;0.50;;;;;;;18.96;42.07;98212.28;7397032;19;20031;-58
2023/03/10 08:40:30;;;;;;;0.13;0.13;;;;;;;18.53;42.69;98227.53;7398218;19;20026;-59
2023/03/10 08:42:56;;;;;;;0.47;0.47;;;;;;;18.45;42.86;98232.47;7398010;19;20033;-58
2023/03/10 08:45:23;;;;;;;0.40;0.40;;;;;;;18.89;42.36;98244.88;7395431;19;20014;-58
2023/03/10 08:47:49;;;;;;;0.57;0.57;;;;;;;19.05;42.52;98254.75;7395342;19;20015;-59
2023/03/10 08:50:15;;;;;;;0.20;0.20;;;;;;;18.98;42.26;98252.72;7395649;19;20022;-58
2023/03/10 08:52:41;;;;;;;0.50;0.50;;;;;;;18.87;42.41;98261.63;7394371;19;20056;-58
2023/03/10 08:55:09;;;;;;;0.20;0.20;;;;;;;18.62;42.70;98255.91;7396572;19;20010;-59
2023/03/10 08:57:35;;;;;;;0.40;0.40;;;;;;;18.60;43.43;98269.06;7396913;19;20025;-58
2023/03/10 09:00:05;;;;;;;0.25;0.25;;;;;;;18.57;43.72;98273.78;7396491;19;20014;-58
2023/03/10 09:02:32;;;;;;;0.40;0.40;;;;;;;18.28;43.77;98272.50;7379826;19;20720;-58
2023/03/10 09:04:58;;;;;;;0.32;0.32;;;;;;;18.96;43.30;98283.59;7397030;19;20014;-58
2023/03/10 09:07:24;;;;;;;0.65;0.65;;;;;;;19.13;43.13;98289.31;7395856;19;20050;-58
2023/03/10 09:09:50;;;;;;;0.40;0.40;;;;;;;19.00;43.12;98283.94;7395139;19;20011;-57
2023/03/10 09:12:17;;;;;;;0.70;0.70;;;;;;;19.21;42.50;98297.78;7400259;19;20014;-60
2023/03/10 09:14:43;;;;;;;2.38;0.70;;;;;;;19.32;42.24;98303.72;7398370;19;20073;-58
2023/03/10 09:17:09;;;;;;;1.17;0.57;;;;;;;19.42;42.59;98307.47;7396439;19;20360;-61
2023/03/10 09:19:35;;;;;;;0.28;0.28;;;;;;;19.66;42.40;98314.47;7398153;19;20022;-61
2023/03/10 09:22:02;;;;;;;1.58;1.20;;;;;;;19.31;42.20;98319.16;7397491;19;20356;-60
2023/03/10 09:24:28;;;;;;;1.27;0.47;;;;;;;20.16;42.33;98327.22;7395148;19;20011;-61
2023/03/10 09:26:55;;;;;;;0.52;0.43;;;;;;;20.49;41.44;98335.66;7394660;19;20007;-61
2023/03/10 09:29:21;;;;;;;1.65;1.05;;;;;;;19.15;43.43;98340.31;7399353;19;20039;-61
2023/03/10 09:31:47;;;;;;;0.60;0.60;;;;;;;19.94;42.54;98344.38;7400004;19;20036;-61
2023/03/10 09:34:13;;;;;;;0.85;0.70;;;;;;;20.29;42.53;98358.06;7394052;19;20066;-60
2023/03/10 09:36:40;;;;;;;0.95;0.80;;;;;;;18.55;44.34;98358.19;7396418;19;20022;-60
2023/03/10 09:39:06;;;;;;;0.55;0.40;;;;;;;18.12;45.10;98350.69;7395563;19;20050;-60
2023/03/10 09:42:06;;;;;;;0.70;0.70;;;;;;;18.89;43.69;98366.16;7397273;19;20018;-60
2023/03/10 09:44:44;;;;;;;0.70;0.70;;;;;;;19.38;43.08;98369.19;7393420;19;20527;-60
2023/03/10 09:47:47;;;;;;;0.50;0.50;;;;;;;19.32;43.42;98371.47;7395593;19;20023;-61
2023/03/10 09:50:31;;;;;;;0.55;0.55;;;;;;;19.33;42.70;98387.09;7393007;19;20465;-60
2023/03/10 09:53:06;;;;;;;1.05;0.95;;;;;;;19.33;42.93;98389.91;7393000;19;20015;-60
2023/03/10 09:55:39;;;;;;;0.43;0.43;;;;;;;19.20;42.80;98401.44;7394725;19;20015;-60
2023/03/10 09:58:14;;;;;;;0.75;0.75;;;;;;;19.07;43.32;98412.97;7395358;19;20007;-60
2023/03/10 10:00:43;;;;;;;0.50;0.50;;;;;;;19.68;42.50;98408.56;7394757;19;20030;-60
2023/03/10 10:03:18;;;;;;;0.68;0.68;;;;;;;19.80;42.34;98419.44;7395138;19;20010;-61
2023/03/10 10:05:47;;;;;;;0.40;0.40;;;;;;;19.39;42.18;98430.00;7393187;19;20021;-61
2023/03/10 10:08:20;;;;;;;0.70;0.70;;;;;;;19.88;41.29;98425.81;7389536;19;20351;-61
2023/03/10 10:10:52;;;;;;;0.65;0.60;;;;;;;20.07;41.30;98431.72;7393407;19;20033;-61
2023/03/10 10:13:21;;;;;;;0.40;0.40;;;;;;;18.01;43.09;98446.84;7392535;19;20383;-61
2023/03/10 10:16:12;;;;;;;0.40;0.40;;;;;;;18.37;43.07;98443.09;7392713;19;20010;-61
2023/03/10 10:18:42;;;;;;;0.80;0.80;;;;;;;18.60;41.67;98449.53;7390296;19;20019;-62
2023/03/10 10:21:12;;;;;;;5.90;0.63;;;;;;;16.49;46.11;98461.41;7391033;19;20010;-62
2023/03/10 10:23:49;;;;;;;0.70;0.70;;;;;;;18.85;42.19;98461.72;7391340;19;20022;-62
2023/03/10 10:26:21;;;;;;;1.95;0.57;;;;;;;18.89;41.94;98459.25;7392028;19;20015;-61
2023/03/10 10:28:56;;;;;;;0.50;0.30;;;;;;;18.99;42.25;98462.28;7395473;19;20022;-61
2023/03/10 10:31:30;;;;;;;0.65;0.65;;;;;;;18.87;42.58;98471.13;7395541;19;20006;-61
2023/03/10 10:34:18;;;;;;;0.35;0.35;;;;;;;19.66;42.43;98467.72;7391691;19;20483;-61
2023/03/10 10:36:54;;;;;;;0.70;0.45;;;;;;;20.10;42.65;98479.34;7390341;19;20019;-61
2023/03/10 10:39:25;;;;;;;0.35;0.35;;;;;;;20.18;41.99;98482.16;7389773;19;20022;-61
2023/03/10 10:41:52;;;;;;;0.57;0.57;;;;;;;19.97;41.48;98490.16;7392384;19;20357;-62
2023/03/10 10:44:20;;;;;;;0.60;0.60;;;;;;;19.29;41.84;98502.47;7391499;19;20434;-62
2023/03/10 10:46:55;;;;;;;0.47;0.47;;;;;;;18.99;42.16;98513.06;7391005;19;20047;-62
2023/03/10 10:49:26;;;;;;;0.30;0.30;;;;;;;18.67;42.46;98513.63;7392178;19;20021;-61
2023/03/10 10:51:57;;;;;;;;;;;;;;;18.61;42.85;98513.06;7396160;19;20014;-62
2023/03/10 10:54:40;;;;;;;0.55;0.55;;;;;;;18.59;43.04;98530.53;7389965;19;19919;-62
2023/03/10 10:57:17;;;;;;;0.35;0.35;;;;;;;18.72;43.65;98530.38;7386744;19;20018;-62
2023/03/10 10:59:44;;;;;;;0.40;0.40;;;;;;;18.97;43.45;98539.03;7391884;19;20015;-62
2023/03/10 11:02:31;;;;;;;0.30;0.30;;;;;;;18.74;43.40;98543.91;7390562;19;20014;-62
2023/03/10 11:05:17;;;;;;;0.50;0.50;;;;;;;18.84;43.26;98545.59;7388405;19;20028;-62
2023/03/10 11:07:44;;;;;;;1.38;1.00;;;;;;;19.26;42.11;98548.75;7390888;19;20014;-61
2023/03/10 11:10:16;;;;;;;0.82;0.82;;;;;;;19.10;42.02;98541.63;7391233;19;20342;-62
2023/03/10 11:12:55;;;;;;;0.30;0.30;;;;;;;19.15;42.99;98557.63;7391861;19;20011;-61
2023/03/10 11:15:31;;;;;;;12.70;1.02;;;;;;;19.30;43.66;98549.13;7397453;19;20511;-61
2023/03/10 11:18:15;;;;;;;0.73;0.73;;;;;;;20.00;42.65;98551.19;7392190;19;20015;-62
2023/03/10 11:20:53;;;;;;;0.50;0.50;;;;;;;20.19;42.14;98549.41;7392527;19;20018;-62
2023/03/10 11:23:23;;;;;;;0.70;0.70;;;;;;;20.58;41.87;98552.78;7392025;19;20066;-62
2023/03/10 11:25:57;;;;;;;0.30;0.30;;;;;;;20.37;40.88;98561.59;7391545;19;20042;-62
2023/03/10 11:28:51;;;;;;;0.47;0.47;;;;;;;20.03;40.92;98561.38;7394096;19;20021;-62
2023/03/10 11:31:49;;;;;;;0.60;0.60;;;;;;;20.05;40.91;98564.38;7397109;19;20075;-62
2023/03/10 11:34:29;;;;;;;0.47;0.47;;;;;;;20.49;40.04;98562.66;7388745;19;20096;-62
2023/03/10 11:37:23;;;;;;;0.70;0.70;;;;;;;21.14;38.11;98564.06;7392050;19;20478;-62
2023/03/10 11:40:13;;;;;;;0.50;0.50;;;;;;;20.66;39.03;98570.47;7392003;19;20018;-62
2023/03/10 11:42:47;;;;;;;0.75;0.75;;;;;;;21.21;38.81;98578.72;7392042;19;20019;-62
2023/03/10 11:45:36;;;;;;;0.90;0.70;;;;;;;21.05;38.28;98590.19;7392430;19;20049;-62